Gering, Nebraska
Current Conditions -  °F | °C
As of 6:53 AM on Thursday 29 Jan 2015 (Local Time) from KTOR Reporting Station
Clear Clear  
Wind Chill: 22°   Ceiling: Unl
Heat Index: 29°   Visibility: 10mi
Dew Point: 22°   Wind: 7mph
Humidity: 75%   Direction: 320°NW
Pressure: 30.46"   Gusts: NA
Location:  41.82°N, 103.66°W
Report Text: KTOR 291353Z AUTO 32006KT 10SM CLR M02/M06 A3046 RMK AO2 SLP331 T10171056
Loading
Personal Weather Stations






























Interactive Weather Map New forecast layout! Learn more

10-Day Weather Forecast

Advertisements
Track Severe Weather on mobile